Time;durP1;ratioP1;P1;durP2;ratioP2;P2;SDS_P1;SDS_P2;PMS_P1;PMS_P2;Temp;Humidity;BMP_temperature;BMP_pressure;BME280_temperature;BME280_humidity;BME280_pressure;Samples;Min_cycle;Max_cycle;Signal;HPM_P1;HPM_P2
2023/05/06 00:00:45;;;;;;;2.60;1.87;;;;;;;;;;5055554;28;20450;-77
2023/05/06 00:03:13;;;;;;;1.93;1.77;;;;;;;;;;5055453;28;20490;-79
2023/05/06 00:05:41;;;;;;;3.00;1.87;;;;;;;;;;5055339;28;20451;-80
2023/05/06 00:08:09;;;;;;;1.90;1.70;;;13.30;99.90;;;;;;5054320;28;20819;-82
2023/05/06 00:10:36;;;;;;;4.40;2.07;;;;;;;;;;5055268;28;20454;-82
2023/05/06 00:13:03;;;;;;;2.20;1.80;;;;;;;;;;5054449;28;20443;-77
2023/05/06 00:15:30;;;;;;;1.67;1.57;;;;;;;;;;5055193;28;20451;-76
2023/05/06 00:17:57;;;;;;;3.17;1.60;;;;;;;;;;5055279;28;20454;-77
2023/05/06 00:20:24;;;;;;;1.43;1.33;;;;;;;;;;5055128;28;20442;-79
2023/05/06 00:22:51;;;;;;;3.63;1.93;;;;;;;;;;5054000;28;20489;-76
2023/05/06 00:25:20;;;;;;;1.57;1.37;;;;;;;;;;5055139;28;20457;-77
2023/05/06 00:27:47;;;;;;;4.53;1.97;;;;;;;;;;5054732;28;20458;-80
2023/05/06 00:30:14;;;;;;;1.63;1.53;;;;;;;;;;5054949;28;20458;-80
2023/05/06 00:32:41;;;;;;;3.07;2.30;;;;;;;;;;5054981;28;20447;-83
2023/05/06 00:35:09;;;;;;;3.97;1.77;;;12.90;99.90;;;;;;5054850;28;20911;-76
2023/05/06 00:37:36;;;;;;;1.87;1.77;;;;;;;;;;5054870;28;20463;-77
2023/05/06 00:40:04;;;;;;;1.80;1.70;;;;;;;;;;5053362;28;20487;-81
2023/05/06 00:42:33;;;;;;;2.03;1.80;;;12.80;99.90;;;;;;5054588;28;20490;-77
2023/05/06 00:45:00;;;;;;;1.70;1.60;;;;;;;;;;5054732;28;20461;-77
2023/05/06 00:47:27;;;;;;;4.90;2.20;;;;;;;;;;5054570;28;20450;-80
2023/05/06 00:49:54;;;;;;;2.10;1.90;;;;;;;;;;5054615;28;20461;-78
2023/05/06 00:52:21;;;;;;;2.53;1.70;;;;;;;;;;5054485;28;20458;-82
2023/05/06 00:54:49;;;;;;;3.67;1.90;;;12.80;99.90;;;;;;5053374;28;20447;-83
2023/05/06 00:57:16;;;;;;;2.90;2.20;;;;;;;;;;5054420;28;20494;-82
2023/05/06 00:59:44;;;;;;;3.60;2.00;;;;;;;;;;5054323;28;20481;-82
2023/05/06 01:02:11;;;;;;;1.70;1.50;;;;;;;;;;5054198;28;20989;-82
2023/05/06 01:04:40;;;;;;;2.17;1.93;;;;;;;;;;5054248;28;20457;-77
2023/05/06 01:07:16;;;;;;;3.50;2.00;;;12.70;99.90;;;;;;5054258;28;20457;-77
2023/05/06 01:09:53;;;;;;;1.70;1.60;;;12.70;99.90;;;;;;5050764;28;20556;-82
2023/05/06 01:12:28;;;;;;;2.07;1.87;;;12.70;99.90;;;;;;5053280;28;20466;-83
2023/05/06 01:15:05;;;;;;;2.40;2.13;;;12.70;99.90;;;;;;5054281;28;20442;-82
2023/05/06 01:17:35;;;;;;;2.40;1.57;;;12.70;99.90;;;;;;5052666;28;20473;-83
2023/05/06 01:20:03;;;;;;;3.70;2.20;;;;;;;;;;5054055;28;20450;-77
2023/05/06 01:22:32;;;;;;;3.43;2.23;;;;;;;;;;5053840;28;20498;-84
2023/05/06 01:25:00;;;;;;;2.67;2.13;;;12.70;99.90;;;;;;5050444;28;20822;-81
2023/05/06 01:27:27;;;;;;;2.33;2.13;;;;;;;;;;5054007;28;20545;-79
2023/05/06 01:29:55;;;;;;;2.13;1.87;;;;;;;;;;5053979;28;20450;-78
2023/05/06 01:32:37;;;;;;;2.87;1.83;;;12.70;99.90;;;;;;5053912;28;20446;-78
2023/05/06 01:35:15;;;;;;;2.03;1.87;;;12.60;99.90;;;;;;5053815;28;20829;-80
2023/05/06 01:37:46;;;;;;;2.30;2.10;;;12.60;99.90;;;;;;5053599;28;20473;-79
2023/05/06 01:40:15;;;;;;;2.00;1.80;;;;;;;;;;5051063;28;20486;-82
2023/05/06 01:42:43;;;;;;;2.20;2.00;;;;;;;;;;5053590;28;20490;-81
2023/05/06 01:45:11;;;;;;;4.03;1.97;;;12.60;99.90;;;;;;5053323;28;20451;-83
2023/05/06 01:47:40;;;;;;;2.13;1.90;;;12.60;99.90;;;;;;5052755;28;20798;-81
2023/05/06 01:50:07;;;;;;;1.67;1.57;;;;;;;;;;5053432;28;20473;-78
2023/05/06 01:52:34;;;;;;;2.37;1.93;;;;;;;;;;5051846;28;20465;-82
2023/05/06 01:55:01;;;;;;;1.70;1.60;;;;;;;;;;5051204;28;20953;-82
2023/05/06 01:57:30;;;;;;;3.37;2.00;;;;;;;;;;5052397;28;20450;-78
2023/05/06 01:59:57;;;;;;;2.10;2.00;;;;;;;;;;5053419;28;20446;-83
2023/05/06 02:02:24;;;;;;;2.37;2.17;;;;;;;;;;5052497;28;20486;-77
2023/05/06 02:04:53;;;;;;;2.10;1.73;;;12.50;99.90;;;;;;5053243;28;20959;-79
2023/05/06 02:07:20;;;;;;;2.13;2.03;;;;;;;;;;5053292;28;20652;-83
2023/05/06 02:09:47;;;;;;;1.90;1.70;;;;;;;;;;5049669;28;20827;-77
2023/05/06 02:12:14;;;;;;;2.53;2.33;;;;;;;;;;5053167;28;20926;-79
2023/05/06 02:14:42;;;;;;;3.70;1.97;;;;;;;;;;5053122;28;20458;-80
2023/05/06 02:17:09;;;;;;;1.80;1.70;;;;;;;;;;5053082;28;20443;-77
2023/05/06 02:19:36;;;;;;;3.17;2.20;;;;;;;;;;5053122;28;20443;-79
2023/05/06 02:22:03;;;;;;;1.97;1.87;;;;;;;;;;5052996;28;20458;-80
2023/05/06 02:24:30;;;;;;;2.20;2.00;;;;;;;;;;5051757;28;20447;-79
2023/05/06 02:26:57;;;;;;;2.23;2.10;;;;;;;;;;5052958;28;20443;-82
2023/05/06 02:29:24;;;;;;;2.03;1.93;;;;;;;;;;5053060;28;20451;-82
2023/05/06 02:31:52;;;;;;;2.50;2.20;;;12.60;99.90;;;;;;5052896;28;20814;-79
2023/05/06 02:34:19;;;;;;;1.73;1.60;;;;;;;;;;5052781;28;20466;-79
2023/05/06 02:36:47;;;;;;;2.33;2.13;;;;;;;;;;5052854;28;20822;-83
2023/05/06 02:39:14;;;;;;;2.40;2.20;;;;;;;;;;5048805;28;20489;-77
2023/05/06 02:41:41;;;;;;;2.60;2.10;;;;;;;;;;5050408;28;20949;-81
2023/05/06 02:44:08;;;;;;;2.07;1.83;;;;;;;;;;5052782;28;20494;-78
2023/05/06 02:46:35;;;;;;;3.20;2.87;;;;;;;;;;5052756;28;20451;-79
2023/05/06 02:49:03;;;;;;;2.43;2.23;;;12.50;99.90;;;;;;5051719;28;20474;-81
2023/05/06 02:51:31;;;;;;;2.70;2.50;;;;;;;;;;5017819;28;20981;-79
2023/05/06 02:53:58;;;;;;;2.60;2.40;;;;;;;;;;5051622;28;20465;-79
2023/05/06 02:56:25;;;;;;;2.60;2.30;;;;;;;;;;5051578;28;20465;-79
2023/05/06 02:58:52;;;;;;;2.60;2.20;;;12.50;99.90;;;;;;5052623;28;20925;-79
2023/05/06 03:01:20;;;;;;;2.43;2.13;;;;;;;;;;5052608;28;20458;-81
2023/05/06 03:03:47;;;;;;;2.77;2.50;;;;;;;;;;5052622;28;20530;-77
2023/05/06 03:06:15;;;;;;;2.77;2.50;;;12.50;99.90;;;;;;5052621;28;20450;-78
2023/05/06 03:08:42;;;;;;;3.10;2.80;;;;;;;;;;5050303;28;20485;-79
2023/05/06 03:11:09;;;;;;;2.70;2.50;;;;;;;;;;5052657;28;20447;-80
2023/05/06 03:13:36;;;;;;;3.00;2.70;;;;;;;;;;5052711;28;20474;-80
2023/05/06 03:16:03;;;;;;;3.87;2.83;;;;;;;;;;5053453;28;20461;-82
2023/05/06 03:18:30;;;;;;;6.37;2.90;;;;;;;;;;5053047;28;20451;-81
2023/05/06 03:20:57;;;;;;;2.57;2.37;;;;;;;;;;5056067;28;20450;-81
2023/05/06 03:23:25;;;;;;;2.63;2.43;;;12.30;99.90;;;;;;5058770;28;20493;-81
2023/05/06 03:25:52;;;;;;;4.03;2.83;;;;;;;;;;5053149;28;20931;-80
2023/05/06 03:28:19;;;;;;;3.17;2.77;;;;;;;;;;5051432;28;20524;-79
2023/05/06 03:30:46;;;;;;;4.37;2.87;;;;;;;;;;5050115;28;20450;-79
2023/05/06 03:33:13;;;;;;;3.80;2.97;;;;;;;;;;5052486;28;20458;-81
2023/05/06 03:35:41;;;;;;;4.03;2.60;;;;;;;;;;5052328;28;20454;-81
2023/05/06 03:38:08;;;;;;;3.27;2.97;;;;;;;;;;5049358;28;20520;-83
2023/05/06 03:40:36;;;;;;;3.87;3.43;;;;;;;;;;5052323;28;20810;-79
2023/05/06 03:43:03;;;;;;;3.00;2.70;;;;;;;;;;5052270;28;20494;-79
2023/05/06 03:45:30;;;;;;;3.87;3.00;;;;;;;;;;5052347;28;20453;-83
2023/05/06 03:47:57;;;;;;;3.90;3.03;;;;;;;;;;5055252;28;20465;-81
2023/05/06 03:50:25;;;;;;;3.30;3.00;;;;;;;;;;5055836;28;20952;-81
2023/05/06 03:52:52;;;;;;;4.60;3.30;;;;;;;;;;5055264;28;20537;-78
2023/05/06 03:55:19;;;;;;;10.77;3.07;;;;;;;;;;5055567;28;20458;-83
2023/05/06 03:57:47;;;;;;;5.17;3.50;;;12.10;99.90;;;;;;5054076;28;20458;-79
2023/05/06 04:00:15;;;;;;;4.50;3.47;;;;;;;;;;5054465;28;20576;-82
2023/05/06 04:02:42;;;;;;;3.37;3.07;;;;;;;;;;5055634;28;20865;-82
2023/05/06 04:05:09;;;;;;;4.07;3.23;;;;;;;;;;5055788;28;20945;-83
2023/05/06 04:07:36;;;;;;;4.87;2.87;;;;;;;;;;5055645;28;20455;-82
2023/05/06 04:10:03;;;;;;;3.47;3.17;;;;;;;;;;5052521;28;20470;-81
2023/05/06 04:12:30;;;;;;;4.07;3.67;;;;;;;;;;5055526;28;20455;-80
2023/05/06 04:14:59;;;;;;;4.60;3.30;;;11.90;99.90;;;;;;5055135;28;20961;-78
2023/05/06 04:17:26;;;;;;;3.73;3.27;;;;;;;;;;5055451;28;20451;-80
2023/05/06 04:19:53;;;;;;;4.83;2.83;;;;;;;;;;5056599;28;20447;-82
2023/05/06 04:22:20;;;;;;;4.43;3.00;;;;;;;;;;5055320;28;20443;-83
2023/05/06 04:24:47;;;;;;;7.97;2.80;;;;;;;;;;5054040;28;20571;-83
2023/05/06 04:27:15;;;;;;;3.93;2.90;;;;;;;;;;5051281;28;20457;-79
2023/05/06 04:29:42;;;;;;;2.53;2.33;;;;;;;;;;5055157;28;20478;-82
2023/05/06 04:32:10;;;;;;;5.60;2.83;;;11.70;99.90;;;;;;5055231;28;20451;-81
2023/05/06 04:34:37;;;;;;;3.60;3.30;;;;;;;;;;5055233;28;20815;-83
2023/05/06 04:37:05;;;;;;;4.13;3.20;;;;;;;;;;5054890;28;20469;-81
2023/05/06 04:39:33;;;;;;;4.43;3.27;;;;;;;;;;5053591;28;20540;-83
2023/05/06 04:42:01;;;;;;;3.60;3.03;;;;;;;;;;5055007;28;20454;-79
2023/05/06 04:44:28;;;;;;;4.20;3.30;;;;;;;;;;5054038;28;20891;-83
2023/05/06 04:46:55;;;;;;;3.37;2.77;;;;;;;;;;5052285;28;20494;-83
2023/05/06 04:49:23;;;;;;;3.77;3.03;;;;;;;;;;5054737;28;20466;-79
2023/05/06 04:51:50;;;;;;;3.00;2.70;;;;;;;;;;5053088;28;20959;-81
2023/05/06 04:54:17;;;;;;;3.67;3.37;;;;;;;;;;5048875;28;20454;-80
2023/05/06 04:56:45;;;;;;;3.00;2.63;;;;;;;;;;5054661;28;20455;-82
2023/05/06 04:59:12;;;;;;;5.03;3.07;;;;;;;;;;5054353;28;20450;-79
2023/05/06 05:01:39;;;;;;;3.77;3.30;;;;;;;;;;5054678;28;20455;-82
2023/05/06 05:04:06;;;;;;;7.53;6.57;;;;;;;;;;5054267;28;20493;-82
2023/05/06 05:06:34;;;;;;;4.30;3.90;;;12.20;99.90;;;;;;5054428;28;20450;-79
2023/05/06 05:09:01;;;;;;;3.97;3.27;;;;;;;;;;5053191;28;20457;-81
2023/05/06 05:11:29;;;;;;;5.10;4.37;;;;;;;;;;5054349;28;20473;-80
2023/05/06 05:13:56;;;;;;;5.80;3.97;;;;;;;;;;5054347;28;20451;-78
2023/05/06 05:16:23;;;;;;;5.93;5.33;;;;;;;;;;5054143;28;20454;-83
2023/05/06 05:18:50;;;;;;;5.20;4.33;;;;;;;;;;5054160;28;20462;-78
2023/05/06 05:21:17;;;;;;;5.57;4.00;;;;;;;;;;5054256;28;20950;-82
2023/05/06 05:23:45;;;;;;;4.37;3.97;;;12.60;99.90;;;;;;5052926;28;20493;-81
2023/05/06 05:26:12;;;;;;;5.20;4.10;;;;;;;;;;5053852;28;20533;-80
2023/05/06 05:28:39;;;;;;;5.90;4.13;;;;;;;;;;5055897;28;20462;-82
2023/05/06 05:31:07;;;;;;;4.90;3.63;;;;;;;;;;5054033;28;20457;-80
2023/05/06 05:33:34;;;;;;;4.57;4.07;;;;;;;;;;5053561;28;20447;-81
2023/05/06 05:36:01;;;;;;;3.47;3.17;;;;;;;;;;5053953;28;20580;-82
2023/05/06 05:38:28;;;;;;;8.77;3.17;;;;;;;;;;5052535;28;20467;-78
2023/05/06 05:40:56;;;;;;;2.77;2.57;;;15.20;99.90;;;;;;5053614;28;20443;-80
2023/05/06 05:43:24;;;;;;;3.03;2.83;;;;;;;;;;5050430;28;20490;-80
2023/05/06 05:45:52;;;;;;;2.90;2.70;;;;;;;;;;5053664;28;20945;-81
2023/05/06 05:48:19;;;;;;;4.73;2.80;;;;;;;;;;5051424;28;20454;-81
2023/05/06 05:50:46;;;;;;;5.30;2.33;;;;;;;;;;5049877;28;20462;-79
2023/05/06 05:53:13;;;;;;;5.07;2.60;;;;;;;;;;5052636;28;20478;-80
2023/05/06 05:55:40;;;;;;;3.10;2.67;;;;;;;;;;5056656;28;20504;-81
2023/05/06 05:58:10;;;;;;;2.63;1.90;;;17.50;99.90;;;;;;5054663;28;20948;-82
2023/05/06 06:00:37;;;;;;;2.10;1.90;;;;;;;;;;5053459;28;20511;-81
2023/05/06 06:03:04;;;;;;;3.40;2.20;;;;;;;;;;5053497;28;20811;-80
2023/05/06 06:05:32;;;;;;;2.87;2.17;;;;;;;;;;5053321;28;20538;-80
2023/05/06 06:07:59;;;;;;;3.50;2.80;;;;;;;;;;5052088;28;20509;-81
2023/05/06 06:10:26;;;;;;;2.33;1.80;;;;;;;;;;5052771;28;20454;-81
2023/05/06 06:12:53;;;;;;;2.73;1.80;;;;;;;;;;5052297;28;20458;-80
2023/05/06 06:15:21;;;;;;;2.20;1.73;;;17.60;99.90;;;;;;5051921;28;20467;-80
2023/05/06 06:17:48;;;;;;;3.30;1.90;;;;;;;;;;5053107;28;20451;-81
2023/05/06 06:20:15;;;;;;;2.13;1.53;;;;;;;;;;5051651;28;20474;-79
2023/05/06 06:22:43;;;;;;;3.33;1.50;;;;;;;;;;5053245;28;20450;-79
2023/05/06 06:25:10;;;;;;;2.10;1.60;;;;;;;;;;5049969;28;20498;-79
2023/05/06 06:27:37;;;;;;;4.47;2.00;;;;;;;;;;5054002;28;20966;-80
2023/05/06 06:30:04;;;;;;;2.23;2.00;;;;;;;;;;5052944;28;20447;-81
2023/05/06 06:32:32;;;;;;;2.40;1.80;;;17.60;99.90;;;;;;5052918;28;20451;-79
2023/05/06 06:34:59;;;;;;;2.73;1.53;;;;;;;;;;5052724;28;20474;-80
2023/05/06 06:37:27;;;;;;;2.40;1.60;;;;;;;;;;5052938;28;20447;-80
2023/05/06 06:39:54;;;;;;;1.63;1.20;;;;;;;;;;5052023;28;20471;-79
2023/05/06 06:42:21;;;;;;;2.33;1.23;;;;;;;;;;5054698;28;20450;-84
2023/05/06 06:44:48;;;;;;;2.50;1.60;;;;;;;;;;5052938;28;20889;-80
2023/05/06 06:47:15;;;;;;;2.50;1.60;;;;;;;;;;5052948;28;20934;-79
2023/05/06 06:49:43;;;;;;;2.07;1.50;;;17.20;99.90;;;;;;5052923;28;20962;-79
2023/05/06 06:52:10;;;;;;;2.20;1.33;;;;;;;;;;5052830;28;20462;-79
2023/05/06 06:54:37;;;;;;;1.10;1.00;;;17.40;99.90;;;;;;5051193;28;20462;-78
2023/05/06 06:57:04;;;;;;;1.70;1.07;;;;;;;;;;5052527;28;20462;-78
2023/05/06 06:59:32;;;;;;;2.10;1.10;;;;;;;;;;5052884;28;20454;-78
2023/05/06 07:01:59;;;;;;;2.80;1.23;;;;;;;;;;5052492;28;20457;-82
2023/05/06 07:04:26;;;;;;;1.00;0.70;;;;;;;;;;5052681;28;20494;-78
2023/05/06 07:06:55;;;;;;;1.70;1.30;;;18.70;99.90;;;;;;5052626;28;20533;-78
2023/05/06 07:09:22;;;;;;;1.33;1.23;;;;;;;;;;5051495;28;20451;-78
2023/05/06 07:11:49;;;;;;;1.47;1.37;;;;;;;;;;5052614;28;20450;-79
2023/05/06 07:14:16;;;;;;;2.80;1.20;;;;;;;;;;5052395;28;20465;-77
2023/05/06 07:16:43;;;;;;;1.63;1.53;;;;;;;;;;5052558;28;20557;-79
2023/05/06 07:19:11;;;;;;;1.50;1.20;;;;;;;;;;5052308;28;20442;-77
2023/05/06 07:21:38;;;;;;;1.67;1.10;;;;;;;;;;5053349;28;20962;-78
2023/05/06 07:24:07;;;;;;;4.73;1.77;;;21.40;96.00;;;;;;5054998;28;20494;-82
2023/05/06 07:26:35;;;;;;;2.00;1.20;;;21.30;96.00;;;;;;5054963;28;20446;-80
2023/05/06 07:29:03;;;;;;;2.30;1.40;;;;;;;;;;5056284;28;20474;-79
2023/05/06 07:31:32;;;;;;;1.57;1.00;;;;;;;;;;5055969;28;20508;-79
2023/05/06 07:33:59;;;;;;;1.63;1.30;;;;;;;;;;5054658;28;20563;-79
2023/05/06 07:36:27;;;;;;;1.80;0.97;;;;;;;;;;5056249;28;20947;-80
2023/05/06 07:38:54;;;;;;;2.50;1.37;;;;;;;;;;5053749;28;21023;-81
2023/05/06 07:41:23;;;;;;;1.03;0.93;;;;;;;;;;5047052;28;20454;-80
2023/05/06 07:43:51;;;;;;;1.37;1.00;;;18.60;96.70;;;;;;5055979;28;20485;-83
2023/05/06 07:46:18;;;;;;;2.03;1.40;;;;;;;;;;5055968;28;20457;-80
2023/05/06 07:48:45;;;;;;;1.93;1.00;;;;;;;;;;5055292;28;20470;-80
2023/05/06 07:51:12;;;;;;;5.20;1.33;;;;;;;;;;5053534;28;20465;-87
2023/05/06 07:53:40;;;;;;;1.27;1.17;;;;;;;;;;5053193;28;20805;-79
2023/05/06 07:56:07;;;;;;;1.30;1.20;;;;;;;;;;5056325;28;20836;-86
2023/05/06 07:58:35;;;;;;;1.13;1.00;;;17.80;99.90;;;;;;5055020;28;20481;-85
2023/05/06 08:01:02;;;;;;;1.80;1.27;;;;;;;;;;5053948;28;20466;-82
2023/05/06 08:03:29;;;;;;;2.80;1.30;;;;;;;;;;5054946;28;20446;-86
2023/05/06 08:05:56;;;;;;;1.40;1.10;;;;;;;;;;5054025;28;20501;-80
2023/05/06 08:08:26;;;;;;;1.77;1.10;;;;;;;;;;5054363;28;20446;-84
2023/05/06 08:10:53;;;;;;;1.50;1.20;;;;;;;;;;5055297;28;20481;-82
2023/05/06 08:13:20;;;;;;;2.27;1.40;;;;;;;;;;5054191;28;20466;-81
2023/05/06 08:15:48;;;;;;;1.00;0.90;;;20.50;98.50;;;;;;5054615;28;20470;-83
2023/05/06 08:18:15;;;;;;;1.87;1.30;;;;;;;;;;5054442;28;20845;-80
2023/05/06 08:20:42;;;;;;;2.20;1.40;;;;;;;;;;5053982;28;20473;-80
2023/05/06 08:23:09;;;;;;;1.90;1.50;;;;;;;;;;5064327;28;20454;-80
2023/05/06 08:25:37;;;;;;;2.00;1.20;;;;;;;;;;5059954;28;20579;-81
2023/05/06 08:28:04;;;;;;;2.07;1.27;;;;;;;;;;5054947;28;20459;-79
2023/05/06 08:30:31;;;;;;;2.90;1.10;;;;;;;;;;5055099;28;20447;-81
2023/05/06 08:32:59;;;;;;;1.30;1.20;;;18.80;97.10;;;;;;5052633;28;20462;-81
2023/05/06 08:35:26;;;;;;;1.43;0.90;;;;;;;;;;5054193;28;20470;-80
2023/05/06 08:37:53;;;;;;;1.57;0.80;;;;;;;;;;5052943;28;20458;-81
2023/05/06 08:40:22;;;;;;;2.70;0.80;;;18.20;99.90;;;;;;5052733;28;20493;-81
2023/05/06 08:42:50;;;;;;;1.57;1.10;;;19.10;99.50;;;;;;5043844;28;20466;-79
2023/05/06 08:45:17;;;;;;;1.40;0.90;;;;;;;;;;5054561;28;20497;-80
2023/05/06 08:47:45;;;;;;;1.40;0.90;;;;;;;;;;5054649;28;20477;-80
2023/05/06 08:50:13;;;;;;;1.37;1.20;;;;;;;;;;5054784;28;20512;-80
2023/05/06 08:52:40;;;;;;;0.90;0.70;;;;;;;;;;5054731;28;20953;-80
2023/05/06 08:55:08;;;;;;;1.07;0.97;;;22.60;81.90;;;;;;5053346;28;20493;-82
2023/05/06 08:57:36;;;;;;;1.50;0.90;;;;;;;;;;5054528;28;20459;-81
2023/05/06 09:00:03;;;;;;;1.53;1.07;;;;;;;;;;5054558;28;20443;-80
2023/05/06 09:02:30;;;;;;;3.27;1.13;;;;;;;;;;5054756;28;20461;-79
2023/05/06 09:04:57;;;;;;;1.53;1.10;;;;;;;;;;5054466;28;20498;-80
2023/05/06 09:07:25;;;;;;;0.97;0.80;;;21.90;87.10;;;;;;5054473;28;20438;-79
2023/05/06 09:09:52;;;;;;;0.97;0.80;;;;;;;;;;5053270;28;20442;-79
2023/05/06 09:12:19;;;;;;;2.30;1.17;;;;;;;;;;5054267;28;20442;-79
2023/05/06 09:14:50;;;;;;;1.40;1.10;;;21.00;85.80;;;;;;5054169;28;20451;-79
2023/05/06 09:17:22;;;;;;;1.60;0.90;;;;;;;;;;5052939;28;20544;-79
2023/05/06 09:19:49;;;;;;;1.93;1.10;;;;;;;;;;5051180;28;20474;-80
2023/05/06 09:22:16;;;;;;;1.23;1.03;;;;;;;;;;5051211;28;20836;-81
2023/05/06 09:24:45;;;;;;;2.47;1.30;;;;;;;;;;5050499;28;20531;-81
2023/05/06 09:27:12;;;;;;;1.30;1.20;;;;;;;;;;5051019;28;20467;-79
2023/05/06 09:29:39;;;;;;;1.00;0.93;;;;;;;;;;5051294;28;20481;-79
2023/05/06 09:32:09;;;;;;;1.40;1.13;;;21.00;85.80;;;;;;5054063;28;20817;-80
2023/05/06 09:34:37;;;;;;;1.60;1.50;;;;;;;;;;5051575;28;20566;-79
2023/05/06 09:37:05;;;;;;;1.47;1.37;;;19.10;90.80;;;;;;5052116;28;20473;-80
2023/05/06 09:39:32;;;;;;;1.40;1.20;;;;;;;;;;5050084;28;20855;-79
2023/05/06 09:42:01;;;;;;;2.83;1.10;;;18.80;94.70;;;;;;5050550;28;20473;-80
2023/05/06 09:44:28;;;;;;;0.97;0.90;;;;;;;;;;5052835;28;20486;-79
2023/05/06 09:46:55;;;;;;;0.80;0.70;;;;;;;;;;5051253;28;20469;-79
2023/05/06 09:49:22;;;;;;;1.00;0.80;;;;;;;;;;5052425;28;20471;-78
2023/05/06 09:51:50;;;;;;;2.27;1.07;;;;;;;;;;5053463;28;20529;-78
2023/05/06 09:54:18;;;;;;;1.27;1.10;;;;;;;;;;5051124;28;20541;-79
2023/05/06 09:56:46;;;;;;;2.40;1.30;;;18.70;96.00;;;;;;5053275;28;20442;-79
2023/05/06 09:59:17;;;;;;;0.90;0.90;;;19.10;96.80;;;;;;5053422;28;20450;-78
2023/05/06 10:01:44;;;;;;;1.40;1.00;;;;;;;;;;5053215;28;20443;-79
2023/05/06 10:04:15;;;;;;;1.10;1.00;;;21.30;96.90;;;;;;5053004;28;20469;-80
2023/05/06 10:06:42;;;;;;;3.23;2.60;;;;;;;;;;5053164;28;20454;-78
2023/05/06 10:09:09;;;;;;;4.87;3.23;;;;;;;;;;5050599;28;20466;-79
2023/05/06 10:11:36;;;;;;;2.23;1.10;;;;;;;;;;5053116;28;20492;-79
2023/05/06 10:14:05;;;;;;;1.37;1.27;;;22.60;85.80;;;;;;5053151;28;20457;-79
2023/05/06 10:16:34;;;;;;;2.43;1.40;;;22.60;81.50;;;;;;5053105;28;20897;-79
2023/05/06 10:19:03;;;;;;;1.17;1.00;;;;;;;;;;5051810;28;20524;-79
2023/05/06 10:21:33;;;;;;;0.80;0.80;;;;;;;;;;5052712;28;20590;-79
2023/05/06 10:24:03;;;;;;;2.00;1.00;;;;;;;;;;5050661;28;20579;-79
2023/05/06 10:26:30;;;;;;;0.90;0.67;;;;;;;;;;5052759;28;20491;-79
2023/05/06 10:29:01;;;;;;;2.93;1.60;;;24.30;65.00;;;;;;5053021;28;20447;-80
2023/05/06 10:31:30;;;;;;;1.00;0.70;;;24.60;59.60;;;;;;5052856;28;20446;-79
2023/05/06 10:34:02;;;;;;;3.93;1.07;;;24.50;58.10;;;;;;5052684;28;20497;-80
2023/05/06 10:36:32;;;;;;;1.50;1.00;;;23.90;59.60;;;;;;5053064;28;20442;-79
2023/05/06 10:39:02;;;;;;;3.40;0.90;;;23.30;58.20;;;;;;5051493;28;21039;-81
2023/05/06 10:41:29;;;;;;;0.90;0.80;;;;;;;;;;5051048;28;20950;-81
2023/05/06 10:43:58;;;;;;;1.80;1.03;;;;;;;;;;5051897;28;20458;-79
2023/05/06 10:46:25;;;;;;;2.00;1.60;;;23.80;58.90;;;;;;5052724;28;20533;-79
2023/05/06 10:49:19;;;;;;;2.33;1.13;;;24.10;54.40;;;;;;5050876;28;20494;-80
2023/05/06 10:51:46;;;;;;;1.67;1.07;;;;;;;;;;5050924;28;20459;-78
2023/05/06 10:54:22;;;;;;;1.50;1.20;;;24.00;56.60;;;;;;5050456;28;20808;-80
2023/05/06 10:57:07;;;;;;;0.80;0.80;;;23.70;56.70;;;;;;5054823;28;20519;-80
2023/05/06 10:59:35;;;;;;;1.00;0.73;;;;;;;;;;5055939;28;20506;-79
2023/05/06 11:02:09;;;;;;;0.80;0.80;;;23.60;55.30;;;;;;5055680;28;20561;-78
2023/05/06 11:04:37;;;;;;;1.67;0.83;;;23.00;58.90;;;;;;5056717;28;20812;-78
2023/05/06 11:07:10;;;;;;;1.77;1.00;;;22.70;53.20;;;;;;5054607;28;20466;-79
2023/05/06 11:09:55;;;;;;;1.80;1.00;;;23.20;57.20;;;;;;5053975;28;20471;-79
2023/05/06 11:12:22;;;;;;;3.33;1.20;;;;;;;;;;5056555;28;20485;-80
2023/05/06 11:14:49;;;;;;;1.00;0.90;;;;;;;;;;5056569;28;20450;-79
2023/05/06 11:17:32;;;;;;;2.07;0.90;;;23.20;57.40;;;;;;5055515;28;20474;-79
2023/05/06 11:20:21;;;;;;;1.10;1.00;;;23.50;69.80;;;;;;5052215;28;22323;-79
2023/05/06 11:22:48;;;;;;;2.73;1.00;;;;;;;;;;5056460;28;20451;-84
2023/05/06 11:25:15;;;;;;;2.17;1.20;;;;;;;;;;5054390;28;20613;-83
2023/05/06 11:27:42;;;;;;;1.63;1.30;;;;;;;;;;5056405;28;20481;-85
2023/05/06 11:30:13;;;;;;;2.53;1.43;;;22.60;64.20;;;;;;5057360;28;20825;-83
2023/05/06 11:32:42;;;;;;;1.50;1.40;;;22.60;64.30;;;;;;5055957;28;20485;-83
2023/05/06 11:35:13;;;;;;;2.30;1.07;;;;;;;;;;5054499;28;20466;-83
2023/05/06 11:37:42;;;;;;;1.80;1.30;;;22.00;62.70;;;;;;5055979;28;20477;-83
2023/05/06 11:40:15;;;;;;;2.00;1.10;;;22.70;63.70;;;;;;5048273;28;20474;-82
2023/05/06 11:42:42;;;;;;;1.73;1.30;;;;;;;;;;5049404;28;20462;-82
2023/05/06 11:45:12;;;;;;;2.10;1.07;;;22.80;59.60;;;;;;5055649;28;20477;-80
2023/05/06 11:47:45;;;;;;;2.20;0.87;;;22.00;59.90;;;;;;5056031;28;20818;-79
2023/05/06 11:50:12;;;;;;;2.30;1.10;;;;;;;;;;5053875;28;20463;-83
2023/05/06 11:52:39;;;;;;;1.63;1.20;;;;;;;;;;5054713;28;20462;-82
2023/05/06 11:55:10;;;;;;;3.43;1.57;;;;;;;;;;5054508;28;20478;-82
2023/05/06 11:57:37;;;;;;;1.67;1.10;;;;;;;;;;5055871;28;20439;-82
2023/05/06 12:00:06;;;;;;;4.30;1.27;;;;;;;;;;5054878;28;20449;-82
2023/05/06 12:02:33;;;;;;;2.83;1.73;;;;;;;;;;5053523;28;20818;-84
2023/05/06 12:05:02;;;;;;;2.53;1.60;;;23.80;58.20;;;;;;5053988;28;20946;-80
2023/05/06 12:07:29;;;;;;;2.00;1.80;;;;;;;;;;5054778;28;20469;-80
2023/05/06 12:09:57;;;;;;;1.57;1.47;;;;;;;;;;5050889;28;20474;-81
2023/05/06 12:12:26;;;;;;;2.10;1.57;;;23.20;61.50;;;;;;5054135;28;20494;-81
2023/05/06 12:14:54;;;;;;;1.60;1.30;;;;;;;;;;5053582;28;20862;-80
2023/05/06 12:17:21;;;;;;;2.77;1.60;;;;;;;;;;5051947;28;20831;-81
2023/05/06 12:19:48;;;;;;;2.53;1.80;;;;;;;;;;5051454;28;20466;-80
2023/05/06 12:22:16;;;;;;;1.93;1.30;;;19.50;58.90;;;;;;5052619;28;20485;-80
2023/05/06 12:24:43;;;;;;;2.83;1.90;;;;;;;;;;5052553;28;20804;-80
2023/05/06 12:27:10;;;;;;;1.47;1.37;;;;;;;;;;5054437;28;20507;-80
2023/05/06 12:29:39;;;;;;;2.00;1.50;;;21.30;66.80;;;;;;5053443;28;20463;-80
2023/05/06 12:32:10;;;;;;;1.50;1.40;;;21.30;57.70;;;;;;5052277;28;20485;-81
2023/05/06 12:34:38;;;;;;;2.17;1.43;;;21.10;62.00;;;;;;5054687;28;20504;-80
2023/05/06 12:37:05;;;;;;;1.77;1.40;;;;;;;;;;5053982;28;20540;-80
2023/05/06 12:39:34;;;;;;;2.27;1.50;;;22.20;73.50;;;;;;5039577;28;20498;-81
2023/05/06 12:42:02;;;;;;;2.73;1.33;;;;;;;;;;5035043;28;20444;-81
2023/05/06 12:44:36;;;;;;;1.63;1.53;;;23.30;54.90;;;;;;5035007;28;20451;-81
2023/05/06 12:47:07;;;;;;;2.03;1.83;;;23.20;56.00;;;;;;5034827;28;20490;-81
2023/05/06 12:49:47;;;;;;;2.57;1.70;;;23.30;55.10;;;;;;5034846;28;20513;-81
2023/05/06 12:52:14;;;;;;;2.23;1.80;;;;;;;;;;5034824;28;20474;-80
2023/05/06 12:54:42;;;;;;;1.70;1.60;;;22.70;58.70;;;;;;5033687;28;20454;-81
2023/05/06 12:57:09;;;;;;;4.80;1.63;;;;;;;;;;5034710;28;20451;-81
2023/05/06 12:59:36;;;;;;;3.53;1.77;;;;;;;;;;5034610;28;20450;-80
2023/05/06 13:02:03;;;;;;;1.97;1.40;;;;;;;;;;5034562;28;20451;-82
2023/05/06 13:04:32;;;;;;;3.13;1.40;;;;;;;;;;5034717;28;20447;-80
2023/05/06 13:06:59;;;;;;;2.00;1.33;;;;;;;;;;5034531;28;20496;-80
2023/05/06 13:09:26;;;;;;;2.83;1.67;;;;;;;;;;5033341;28;20490;-81
2023/05/06 13:11:53;;;;;;;2.90;1.73;;;;;;;;;;5034491;28;20444;-81
2023/05/06 13:14:21;;;;;;;1.93;1.30;;;;;;;;;;5034235;28;20455;-81
2023/05/06 13:16:48;;;;;;;1.77;1.67;;;;;;;;;;5034297;28;20459;-79
2023/05/06 13:19:15;;;;;;;1.97;1.67;;;;;;;;;;5033321;28;20821;-80
2023/05/06 13:21:44;;;;;;;2.90;2.20;;;23.60;57.50;;;;;;5034244;28;20954;-81
2023/05/06 13:24:11;;;;;;;2.13;1.93;;;;;;;;;;5032956;28;20448;-80
2023/05/06 13:26:38;;;;;;;2.40;1.90;;;;;;;;;;5034258;28;20838;-80
2023/05/06 13:29:05;;;;;;;1.70;1.60;;;;;;;;;;5034177;28;20458;-80
2023/05/06 13:31:33;;;;;;;2.23;1.60;;;;;;;;;;5034060;28;20476;-80
2023/05/06 13:34:00;;;;;;;2.03;1.93;;;;;;;;;;5034103;28;20807;-81
2023/05/06 13:36:27;;;;;;;2.63;1.63;;;;;;;;;;5034002;28;20455;-80
2023/05/06 13:38:55;;;;;;;5.27;2.10;;;22.00;58.30;;;;;;5032407;28;20487;-80
2023/05/06 13:41:24;;;;;;;2.23;1.90;;;;;;;;;;5033927;28;20444;-80
2023/05/06 13:43:51;;;;;;;1.73;1.63;;;;;;;;;;5034013;28;20446;-80
2023/05/06 13:46:18;;;;;;;2.07;1.80;;;;;;;;;;5033730;28;20487;-79
2023/05/06 13:48:45;;;;;;;1.90;1.80;;;;;;;;;;5033695;28;20462;-80
2023/05/06 13:51:12;;;;;;;3.83;1.47;;;;;;;;;;5033608;28;20454;-81
2023/05/06 13:53:40;;;;;;;1.57;1.47;;;;;;;;;;5032438;28;20452;-80
2023/05/06 13:56:08;;;;;;;6.90;1.90;;;22.20;60.90;;;;;;5033529;28;20451;-80
2023/05/06 13:58:35;;;;;;;2.13;1.93;;;;;;;;;;5033614;28;20490;-80
2023/05/06 14:01:03;;;;;;;2.23;2.03;;;;;;;;;;5033521;28;20447;-79
2023/05/06 14:03:30;;;;;;;1.93;1.60;;;;;;;;;;5033514;28;20451;-80
2023/05/06 14:05:57;;;;;;;1.97;1.77;;;;;;;;;;5033348;28;20977;-80
2023/05/06 14:08:24;;;;;;;2.27;1.83;;;;;;;;;;5032188;28;20455;-81
2023/05/06 14:10:51;;;;;;;1.70;1.60;;;;;;;;;;5033286;28;20448;-80
2023/05/06 14:13:19;;;;;;;1.83;1.73;;;22.80;59.30;;;;;;5033335;28;20451;-80
2023/05/06 14:15:46;;;;;;;2.70;1.70;;;;;;;;;;5033224;28;20447;-80